createdAt,value
2019-04-25T00:00:43.189Z,50.78
2019-04-25T00:03:12.294Z,50.97
2019-04-25T00:05:41.150Z,50.68
2019-04-25T00:08:11.145Z,51.30
2019-04-25T00:10:39.511Z,51.76
2019-04-25T00:13:07.865Z,51.89
2019-04-25T00:15:35.627Z,52.52
2019-04-25T00:18:03.415Z,51.65
2019-04-25T00:20:33.183Z,51.71
2019-04-25T00:23:11.754Z,51.61
2019-04-25T00:26:11.389Z,52.10
2019-04-25T00:28:39.403Z,52.58
2019-04-25T00:31:08.738Z,52.66
2019-04-25T00:33:36.493Z,53.18
2019-04-25T00:36:04.202Z,53.65
2019-04-25T00:38:31.952Z,53.97
2019-04-25T00:40:59.686Z,54.29
2019-04-25T00:43:27.428Z,54.87
2019-04-25T00:45:55.182Z,55.31
2019-04-25T00:48:22.952Z,55.83
2019-04-25T00:50:53.466Z,56.35
2019-04-25T00:53:21.225Z,56.26
2019-04-25T00:55:49.016Z,56.30
2019-04-25T00:58:35.191Z,56.12
2019-04-25T01:01:23.211Z,55.78
2019-04-25T01:03:53.233Z,55.89
2019-04-25T01:06:22.050Z,56.27
2019-04-25T01:08:51.596Z,56.33
2019-04-25T01:11:19.453Z,56.76
2019-04-25T01:13:48.243Z,55.91
2019-04-25T01:16:16.095Z,56.10
2019-04-25T01:18:45.308Z,56.33
2019-04-25T01:21:14.111Z,56.92
2019-04-25T01:23:43.353Z,57.31
2019-04-25T01:26:11.249Z,57.41
2019-04-25T01:28:38.984Z,57.26
2019-04-25T01:31:09.045Z,57.81
2019-04-25T01:33:36.803Z,58.31
2019-04-25T01:36:13.420Z,58.64
2019-04-25T01:38:58.894Z,58.69
2019-04-25T01:41:49.403Z,58.83
2019-04-25T01:44:29.929Z,59.04
2019-04-25T01:46:58.181Z,59.40
2019-04-25T01:49:25.977Z,59.23
2019-04-25T01:51:54.433Z,58.97
2019-04-25T01:54:23.840Z,59.13
2019-04-25T01:56:51.843Z,59.17
2019-04-25T01:59:19.560Z,59.26
2019-04-25T02:01:47.394Z,58.94
2019-04-25T02:04:15.110Z,59.28
2019-04-25T02:06:43.419Z,59.01
2019-04-25T02:09:13.734Z,58.96
2019-04-25T02:11:48.443Z,59.06
2019-04-25T02:14:16.184Z,59.05
2019-04-25T02:16:44.048Z,59.45
2019-04-25T02:19:11.840Z,59.80
2019-04-25T02:21:39.589Z,59.98
2019-04-25T02:24:07.352Z,60.37
2019-04-25T02:26:35.127Z,60.31
2019-04-25T02:29:04.695Z,60.07
2019-04-25T02:31:34.833Z,60.34
2019-04-25T02:34:06.183Z,60.24
2019-04-25T02:36:34.454Z,60.42
2019-04-25T02:39:04.585Z,60.18
2019-04-25T02:41:31.272Z,60.73
2019-04-25T02:44:02.990Z,59.97
2019-04-25T02:47:01.910Z,60.35
2019-04-25T02:49:47.668Z,60.57
2019-04-25T02:52:24.783Z,60.86
2019-04-25T02:54:55.694Z,60.71
2019-04-25T02:57:22.145Z,60.10
2019-04-25T02:59:49.867Z,59.98
2019-04-25T03:02:17.723Z,60.08
2019-04-25T03:04:45.464Z,60.04
2019-04-25T03:07:16.646Z,59.89
2019-04-25T03:09:45.017Z,59.60
2019-04-25T03:12:26.958Z,59.46
2019-04-25T03:14:44.415Z,59.65
2019-04-25T03:17:14.019Z,59.78
2019-04-25T03:20:09.526Z,59.90
2019-04-25T03:22:36.280Z,59.86
2019-04-25T03:25:10.016Z,59.67
2019-04-25T03:27:34.521Z,59.73
2019-04-25T03:30:04.443Z,59.78
2019-04-25T03:32:35.286Z,60.03
2019-04-25T03:35:04.425Z,59.99
2019-04-25T03:37:33.058Z,59.69
2019-04-25T03:40:02.714Z,59.88
2019-04-25T03:42:31.033Z,60.05
2019-04-25T03:44:58.844Z,60.10
2019-04-25T03:47:26.615Z,60.50
2019-04-25T03:49:55.423Z,59.92
2019-04-25T03:52:23.911Z,60.08
2019-04-25T03:54:53.362Z,60.48
2019-04-25T03:57:21.261Z,60.28
2019-04-25T03:59:48.991Z,60.25
2019-04-25T04:02:16.735Z,60.01
2019-04-25T04:04:44.484Z,60.37
2019-04-25T04:07:12.763Z,60.04
2019-04-25T04:09:43.473Z,60.43
2019-04-25T04:12:12.260Z,60.39
2019-04-25T04:14:40.212Z,60.52
2019-04-25T04:17:14.704Z,60.73
2019-04-25T04:19:49.807Z,60.91
2019-04-25T04:22:27.034Z,61.37
2019-04-25T04:24:56.487Z,61.27
2019-04-25T04:27:24.232Z,61.07
2019-04-25T04:29:51.978Z,61.19
2019-04-25T04:32:19.846Z,61.39
2019-04-25T04:34:47.578Z,61.42
2019-04-25T04:37:16.129Z,61.12
2019-04-25T04:39:44.106Z,61.01
2019-04-25T04:42:13.718Z,60.92
2019-04-25T04:44:41.762Z,60.90
2019-04-25T04:47:10.025Z,60.92
2019-04-25T04:49:37.846Z,60.93
2019-04-25T04:52:06.525Z,60.77
2019-04-25T04:54:34.602Z,60.90
2019-04-25T04:57:16.133Z,60.39
2019-04-25T04:59:33.699Z,60.20
2019-04-25T05:02:11.482Z,59.54
2019-04-25T05:04:58.752Z,59.27
2019-04-25T05:07:47.322Z,58.44
2019-04-25T05:10:18.360Z,58.62
2019-04-25T05:12:44.731Z,58.56
2019-04-25T05:15:16.258Z,58.17
2019-04-25T05:17:44.007Z,57.87
2019-04-25T05:20:12.851Z,57.76
2019-04-25T05:22:41.218Z,56.61
2019-04-25T05:25:09.675Z,55.54
2019-04-25T05:27:50.749Z,55.53
2019-04-25T05:30:09.203Z,55.05
2019-04-25T05:32:37.031Z,54.63
2019-04-25T05:35:05.283Z,54.47
2019-04-25T05:37:33.540Z,53.75
2019-04-25T05:40:01.479Z,52.89
2019-04-25T05:42:54.882Z,50.56
2019-04-25T05:45:25.750Z,47.30
2019-04-25T05:47:54.103Z,43.70
2019-04-25T05:50:23.883Z,40.99
2019-04-25T05:52:51.662Z,39.21
2019-04-25T05:55:20.214Z,37.26
2019-04-25T05:57:50.243Z,35.64
2019-04-25T06:00:19.035Z,34.91
2019-04-25T06:02:46.939Z,34.10
2019-04-25T06:05:14.824Z,33.29
2019-04-25T06:07:43.251Z,32.10
2019-04-25T06:10:26.740Z,31.12
2019-04-25T06:13:29.173Z,30.48
2019-04-25T06:16:03.521Z,30.21
2019-04-25T06:18:54.887Z,29.64
2019-04-25T06:21:23.606Z,29.99
2019-04-25T06:24:18.288Z,29.92
2019-04-25T06:27:15.362Z,29.15
2019-04-25T06:29:57.339Z,29.16
2019-04-25T06:32:14.595Z,28.81
2019-04-25T06:34:44.207Z,28.99
2019-04-25T06:37:13.760Z,28.75
2019-04-25T06:39:41.843Z,28.45
2019-04-25T06:42:09.586Z,28.74
2019-04-25T06:44:44.081Z,28.81
2019-04-25T06:47:23.094Z,29.20
2019-04-25T06:49:53.238Z,30.08
2019-04-25T06:52:21.619Z,30.75
2019-04-25T06:54:49.428Z,30.28
2019-04-25T06:57:17.150Z,30.36
2019-04-25T06:59:44.950Z,30.59
2019-04-25T07:02:14.017Z,31.32
2019-04-25T07:04:43.495Z,31.04
2019-04-25T07:07:13.109Z,29.98
2019-04-25T07:09:41.394Z,28.54
2019-04-25T07:12:09.242Z,26.76
2019-04-25T07:14:37.039Z,25.77
2019-04-25T07:17:04.987Z,25.38
2019-04-25T07:19:34.301Z,24.62
2019-04-25T07:22:03.906Z,22.56
2019-04-25T07:24:31.783Z,20.53
2019-04-25T07:27:18.964Z,19.11
2019-04-25T07:29:58.567Z,18.07
2019-04-25T07:32:34.833Z,16.56
2019-04-25T07:35:05.315Z,16.09
2019-04-25T07:37:34.905Z,15.89
2019-04-25T07:40:04.643Z,15.45
2019-04-25T07:42:53.570Z,14.57
2019-04-25T07:45:27.008Z,13.74
2019-04-25T07:48:07.576Z,13.70
2019-04-25T07:50:47.227Z,12.96
2019-04-25T07:53:15.256Z,12.65
2019-04-25T07:55:43.380Z,12.50
2019-04-25T07:58:11.353Z,12.79
2019-04-25T08:00:39.263Z,12.68
2019-04-25T08:03:23.755Z,12.45
2019-04-25T08:06:03.081Z,11.75
2019-04-25T08:08:32.195Z,12.37
2019-04-25T08:11:07.576Z,12.72
2019-04-25T08:13:49.602Z,12.29
2019-04-25T08:16:23.317Z,12.05
2019-04-25T08:18:51.648Z,11.93
2019-04-25T08:21:23.872Z,12.43
2019-04-25T08:23:57.858Z,12.45
2019-04-25T08:26:26.195Z,11.26
2019-04-25T08:28:57.454Z,10.44
2019-04-25T08:31:23.972Z,9.57
2019-04-25T08:33:53.468Z,9.45
2019-04-25T08:36:23.272Z,9.62
2019-04-25T08:38:51.212Z,9.31
2019-04-25T08:41:21.505Z,9.37
2019-04-25T08:43:48.776Z,9.06
2019-04-25T08:46:16.759Z,9.48
2019-04-25T08:49:19.280Z,8.50
2019-04-25T08:51:47.257Z,8.17
2019-04-25T08:54:39.679Z,7.52
2019-04-25T08:57:08.536Z,7.51
2019-04-25T08:59:52.877Z,7.28
2019-04-25T09:02:49.544Z,6.77
2019-04-25T09:05:45.956Z,6.05
2019-04-25T09:08:14.188Z,6.07
2019-04-25T09:10:43.709Z,6.07
2019-04-25T09:13:13.440Z,5.87
2019-04-25T09:15:41.374Z,5.62
2019-04-25T09:18:09.143Z,6.39
2019-04-25T09:20:39.599Z,6.00
2019-04-25T09:23:06.729Z,5.54
2019-04-25T09:25:35.875Z,5.47
2019-04-25T09:28:04.538Z,5.25
2019-04-25T09:30:33.978Z,6.12
2019-04-25T09:33:03.055Z,6.13
2019-04-25T09:35:33.489Z,5.73
2019-04-25T09:38:02.967Z,5.19
2019-04-25T09:40:31.175Z,4.81
2019-04-25T09:42:59.045Z,4.85
2019-04-25T09:45:49.770Z,5.41
2019-04-25T09:48:40.286Z,5.85
2019-04-25T09:51:39.776Z,5.54
2019-04-25T09:54:33.499Z,5.37
2019-04-25T09:57:33.597Z,5.37
2019-04-25T10:00:03.523Z,5.54
2019-04-25T10:02:31.268Z,6.07
2019-04-25T10:04:59.214Z,5.45
2019-04-25T10:07:27.022Z,5.04
2019-04-25T10:09:54.843Z,5.88
2019-04-25T10:12:23.143Z,5.84
2019-04-25T10:15:46.069Z,5.59
2019-04-25T10:18:14.368Z,5.09
2019-04-25T10:20:43.482Z,5.09
2019-04-25T10:23:13.623Z,4.37
2019-04-25T10:25:43.848Z,4.03
2019-04-25T10:28:13.207Z,3.98
2019-04-25T10:30:41.153Z,4.11
2019-04-25T10:33:08.998Z,3.98
2019-04-25T10:35:47.952Z,3.74
2019-04-25T10:38:14.724Z,3.16
2019-04-25T10:40:46.125Z,3.35
2019-04-25T10:43:14.885Z,3.78
2019-04-25T10:45:46.382Z,3.52
2019-04-25T10:48:15.032Z,4.34
2019-04-25T10:50:43.895Z,4.84
2019-04-25T10:53:12.562Z,4.05
2019-04-25T10:55:41.372Z,3.59
2019-04-25T10:58:09.317Z,3.96
2019-04-25T11:00:40.750Z,4.12
2019-04-25T11:03:26.847Z,4.44
2019-04-25T11:05:55.901Z,4.22
2019-04-25T11:08:24.519Z,3.96
2019-04-25T11:10:53.819Z,3.53
2019-04-25T11:13:22.875Z,3.23
2019-04-25T11:15:50.675Z,3.06
2019-04-25T11:18:18.553Z,3.20
2019-04-25T11:20:46.505Z,3.32
2019-04-25T11:23:14.603Z,3.28
2019-04-25T11:25:43.538Z,3.10
2019-04-25T11:28:14.350Z,3.47
2019-04-25T11:30:46.672Z,3.27
2019-04-25T11:33:15.340Z,3.21
2019-04-25T11:35:43.942Z,2.91
2019-04-25T11:38:16.031Z,3.19
2019-04-25T11:40:55.151Z,3.57
2019-04-25T11:43:22.980Z,3.96
2019-04-25T11:45:50.952Z,4.48
2019-04-25T11:48:20.486Z,4.49
2019-04-25T11:50:52.279Z,4.32
2019-04-25T11:53:20.340Z,4.94
2019-04-25T11:55:49.952Z,4.74
2019-04-25T11:58:18.410Z,4.17
2019-04-25T12:00:47.111Z,4.33
2019-04-25T12:03:15.375Z,3.88
2019-04-25T12:05:45.851Z,3.70
2019-04-25T12:08:13.526Z,4.06
2019-04-25T12:10:41.476Z,3.78
2019-04-25T12:13:09.369Z,3.90
2019-04-25T12:15:38.744Z,3.70
2019-04-25T12:18:06.568Z,3.46
2019-04-25T12:20:34.483Z,3.19
2019-04-25T12:23:08.422Z,2.96
2019-04-25T12:25:32.018Z,2.99
2019-04-25T12:28:02.433Z,2.84
2019-04-25T12:30:38.158Z,3.89
2019-04-25T12:33:00.968Z,3.54
2019-04-25T12:35:28.765Z,3.29
2019-04-25T12:37:56.637Z,3.31
2019-04-25T12:40:24.398Z,3.24
2019-04-25T12:42:52.285Z,3.79
2019-04-25T12:45:30.179Z,3.62
2019-04-25T12:47:59.377Z,4.26
2019-04-25T12:50:27.251Z,3.87
2019-04-25T12:52:58.132Z,3.80
2019-04-25T12:55:26.063Z,3.77
2019-04-25T12:57:55.510Z,4.18
2019-04-25T13:00:25.551Z,4.58
2019-04-25T13:02:56.633Z,5.17
2019-04-25T13:05:24.595Z,5.24
2019-04-25T13:07:55.959Z,5.82
2019-04-25T13:10:23.657Z,5.58
2019-04-25T13:12:51.597Z,5.89
2019-04-25T13:15:19.684Z,5.76
2019-04-25T13:17:47.497Z,5.42
2019-04-25T13:20:15.673Z,5.64
2019-04-25T13:22:43.477Z,5.83
2019-04-25T13:25:14.360Z,6.15
2019-04-25T13:28:00.050Z,6.89
2019-04-25T13:30:59.931Z,6.70
2019-04-25T13:33:43.322Z,6.85
2019-04-25T13:36:13.074Z,6.84
2019-04-25T13:38:40.888Z,6.91
2019-04-25T13:41:08.894Z,6.79
2019-04-25T13:43:36.890Z,7.06
2019-04-25T13:46:04.736Z,6.84
2019-04-25T13:48:34.373Z,8.74
2019-04-25T13:51:04.018Z,10.12
2019-04-25T13:53:33.453Z,9.13
2019-04-25T13:56:01.360Z,8.77
2019-04-25T13:58:30.792Z,8.41
2019-04-25T14:01:12.076Z,8.72
2019-04-25T14:03:30.384Z,9.31
2019-04-25T14:05:58.302Z,9.70
2019-04-25T14:08:26.981Z,9.20
2019-04-25T14:10:54.858Z,10.00
2019-04-25T14:13:25.106Z,10.67
2019-04-25T14:16:03.584Z,11.40
2019-04-25T14:18:57.021Z,13.23
2019-04-25T14:21:26.053Z,15.37
2019-04-25T14:23:54.242Z,16.81
2019-04-25T14:26:22.987Z,17.64
2019-04-25T14:28:50.880Z,18.25
2019-04-25T14:31:35.433Z,18.81
2019-04-25T14:33:51.696Z,19.26
2019-04-25T14:36:19.527Z,19.42
2019-04-25T14:38:47.351Z,19.45
2019-04-25T14:41:15.255Z,19.60
2019-04-25T14:43:43.141Z,19.82
2019-04-25T14:46:11.153Z,20.11
2019-04-25T14:48:38.939Z,20.28
2019-04-25T14:51:06.841Z,20.46
2019-04-25T14:53:35.179Z,20.56
2019-04-25T14:56:23.677Z,20.62
2019-04-25T14:58:51.675Z,20.62
2019-04-25T15:01:22.697Z,20.58
2019-04-25T15:03:51.141Z,20.77
2019-04-25T15:06:19.072Z,21.03
2019-04-25T15:08:46.927Z,20.79
2019-04-25T15:11:14.757Z,20.94
2019-04-25T15:13:42.666Z,21.20
2019-04-25T15:16:10.443Z,20.99
2019-04-25T15:18:46.513Z,20.93
2019-04-25T15:21:08.197Z,21.29
2019-04-25T15:23:36.068Z,21.03
2019-04-25T15:26:04.081Z,21.37
2019-04-25T15:28:39.320Z,21.09
2019-04-25T15:31:07.304Z,20.59
2019-04-25T15:33:35.337Z,20.39
2019-04-25T15:36:37.799Z,20.49
2019-04-25T15:39:43.922Z,20.72
2019-04-25T15:42:34.125Z,20.76
2019-04-25T15:45:19.864Z,20.81
2019-04-25T15:47:47.810Z,20.76
2019-04-25T15:50:15.864Z,21.01
2019-04-25T15:52:44.965Z,21.05
2019-04-25T15:55:13.071Z,20.97
2019-04-25T15:57:40.890Z,20.92
2019-04-25T16:00:15.205Z,20.80
2019-04-25T16:02:43.738Z,20.79
2019-04-25T16:05:11.694Z,20.70
2019-04-25T16:07:40.548Z,20.87
2019-04-25T16:10:10.009Z,21.09
2019-04-25T16:12:37.885Z,21.30
2019-04-25T16:15:06.179Z,21.62
2019-04-25T16:17:34.844Z,22.07
2019-04-25T16:20:03.579Z,22.65
2019-04-25T16:22:32.194Z,22.73
2019-04-25T16:25:00.134Z,22.71
2019-04-25T16:27:28.872Z,22.79
2019-04-25T16:29:56.851Z,22.97
2019-04-25T16:32:26.691Z,23.30
2019-04-25T16:34:55.393Z,23.21
2019-04-25T16:37:23.519Z,23.54
2019-04-25T16:39:51.595Z,23.53
2019-04-25T16:45:31.222Z,24.09
2019-04-25T16:47:58.287Z,24.47
2019-04-25T16:50:34.783Z,24.72
2019-04-25T16:53:04.523Z,24.77
2019-04-25T16:55:35.510Z,24.92
2019-04-25T16:58:05.522Z,24.86
2019-04-25T17:00:57.099Z,25.05
2019-04-25T17:03:26.028Z,25.19
2019-04-25T17:05:54.043Z,25.17
2019-04-25T17:08:22.092Z,25.17
2019-04-25T17:10:50.107Z,25.31
2019-04-25T17:13:18.327Z,25.58
2019-04-25T17:16:01.985Z,25.76
2019-04-25T17:18:34.956Z,25.97
2019-04-25T17:21:07.716Z,26.27
2019-04-25T17:23:35.682Z,26.50
2019-04-25T17:26:04.219Z,26.77
2019-04-25T17:28:34.964Z,26.71
2019-04-25T17:31:24.846Z,26.88
2019-04-25T17:34:18.315Z,26.88
2019-04-25T17:36:52.786Z,26.83
2019-04-25T17:39:33.935Z,26.87
2019-04-25T17:53:22.731Z,27.04
2019-04-25T18:12:13.408Z,28.14
2019-04-25T18:23:44.505Z,28.72
2019-04-25T18:30:49.713Z,28.87
2019-04-25T18:33:30.263Z,29.11
2019-04-25T18:36:31.671Z,29.16
2019-04-25T18:39:53.567Z,29.04
2019-04-25T18:43:01.251Z,29.26
2019-04-25T18:46:01.764Z,29.43
2019-04-25T18:48:29.583Z,29.63
2019-04-25T18:51:04.799Z,29.93
2019-04-25T18:53:59.654Z,30.02
2019-04-25T18:56:45.669Z,30.05
2019-04-25T18:59:46.416Z,30.23
2019-04-25T19:02:42.559Z,30.48
2019-04-25T19:06:16.479Z,30.66
2019-04-25T19:08:54.478Z,30.82
2019-04-25T19:11:47.156Z,31.05
2019-04-25T19:15:14.806Z,31.23
2019-04-25T19:17:41.271Z,31.32
2019-04-25T19:20:31.778Z,31.58
2019-04-25T19:22:48.332Z,31.57
2019-04-25T19:25:16.187Z,31.67
2019-04-25T19:27:44.150Z,31.88
2019-04-25T19:30:14.565Z,31.84
2019-04-25T19:32:42.991Z,31.91
2019-04-25T19:35:10.854Z,32.11
2019-04-25T19:37:39.485Z,32.21
2019-04-25T19:40:36.893Z,32.19
2019-04-25T19:43:27.012Z,32.29
2019-04-25T19:45:54.790Z,32.41
2019-04-25T19:48:22.568Z,32.49
2019-04-25T19:50:50.642Z,32.50
2019-04-25T19:53:18.493Z,32.59
2019-04-25T19:55:46.269Z,32.78
2019-04-25T19:58:14.083Z,32.81
2019-04-25T20:00:43.257Z,32.94
2019-04-25T20:03:19.868Z,32.92
2019-04-25T20:05:56.048Z,33.04
2019-04-25T20:08:33.465Z,33.16
2019-04-25T20:11:06.306Z,33.29
2019-04-25T20:13:34.107Z,33.49
2019-04-25T20:16:01.880Z,33.70
2019-04-25T20:18:29.713Z,33.72
2019-04-25T20:20:57.470Z,33.88
2019-04-25T20:23:25.263Z,33.91
2019-04-25T20:25:55.831Z,34.06
2019-04-25T20:28:22.767Z,34.04
2019-04-25T20:30:50.532Z,34.20
2019-04-25T20:33:18.286Z,34.51
2019-04-25T20:35:47.443Z,34.65
2019-04-25T20:38:15.373Z,34.82
2019-04-25T20:40:43.191Z,34.98
2019-04-25T20:43:10.949Z,35.18
2019-04-25T20:45:40.178Z,35.24
2019-04-25T20:48:07.980Z,35.27
2019-04-25T20:50:35.755Z,35.54
2019-04-25T20:53:03.591Z,35.59
2019-04-25T20:55:31.387Z,35.71
2019-04-25T20:57:59.185Z,35.77
2019-04-25T21:00:43.016Z,35.76
2019-04-25T21:03:10.854Z,36.03
2019-04-25T21:05:39.094Z,36.25
2019-04-25T21:08:06.887Z,36.50
2019-04-25T21:10:34.659Z,36.69
2019-04-25T21:13:04.807Z,36.86
2019-04-25T21:15:56.219Z,36.73
2019-04-25T21:18:30.620Z,36.75
2019-04-25T21:20:59.212Z,36.72
2019-04-25T21:23:27.109Z,36.82
2019-04-25T21:25:54.922Z,36.94
2019-04-25T21:28:22.706Z,36.62
2019-04-25T21:30:51.358Z,36.56
2019-04-25T21:33:19.183Z,36.80
2019-04-25T21:35:47.195Z,37.17
2019-04-25T21:38:15.471Z,37.09
2019-04-25T21:41:05.687Z,37.05
2019-04-25T21:43:37.808Z,36.89
2019-04-25T21:46:05.880Z,36.98
2019-04-25T21:48:33.914Z,37.26
2019-04-25T21:51:21.614Z,37.08
2019-04-25T21:53:49.364Z,37.25
2019-04-25T21:56:17.309Z,37.53
2019-04-25T21:58:45.050Z,37.42
2019-04-25T22:01:17.034Z,37.85
2019-04-25T22:03:44.889Z,37.86
2019-04-25T22:06:12.982Z,38.29
2019-04-25T22:08:40.729Z,38.12
2019-04-25T22:11:08.514Z,38.23
2019-04-25T22:13:36.576Z,38.26
2019-04-25T22:16:04.615Z,38.43
2019-04-25T22:18:32.978Z,38.45
2019-04-25T22:21:02.358Z,38.66
2019-04-25T22:23:30.283Z,38.84
2019-04-25T22:25:58.853Z,38.98
2019-04-25T22:28:27.002Z,39.06
2019-04-25T22:30:57.824Z,38.89
2019-04-25T22:33:37.707Z,38.97
2019-04-25T22:36:11.991Z,39.04
2019-04-25T22:38:39.751Z,39.13
2019-04-25T22:41:07.519Z,39.14
2019-04-25T22:43:37.449Z,39.03
2019-04-25T22:46:05.980Z,38.92
2019-04-25T22:48:48.918Z,38.80
2019-04-25T22:51:16.749Z,38.74
2019-04-25T22:53:45.215Z,38.62
2019-04-25T22:56:12.926Z,38.78
2019-04-25T22:58:40.796Z,38.71
2019-04-25T23:01:18.937Z,38.94
2019-04-25T23:03:48.701Z,39.32
2019-04-25T23:06:16.663Z,39.56
2019-04-25T23:08:44.471Z,40.09
2019-04-25T23:11:12.502Z,40.52
2019-04-25T23:13:40.563Z,41.09
2019-04-25T23:16:08.994Z,41.19
2019-04-25T23:18:36.789Z,41.53
2019-04-25T23:21:05.700Z,41.59
2019-04-25T23:23:34.213Z,42.00
2019-04-25T23:26:12.562Z,42.18
2019-04-25T23:28:41.322Z,42.44
2019-04-25T23:31:16.076Z,42.56
2019-04-25T23:33:44.153Z,42.94
2019-04-25T23:36:13.164Z,43.36
2019-04-25T23:38:41.063Z,43.21
2019-04-25T23:41:09.381Z,43.37
2019-04-25T23:43:37.200Z,43.46
2019-04-25T23:46:05.698Z,43.59
2019-04-25T23:48:33.800Z,43.78
2019-04-25T23:51:01.659Z,44.27
2019-04-25T23:53:29.449Z,44.32
2019-04-25T23:55:57.211Z,44.53
2019-04-25T23:58:24.930Z,44.66
